createdAt,value
2022-12-23T00:01:09.155Z,97745.50
2022-12-23T00:03:35.811Z,97755.72
2022-12-23T00:06:11.996Z,97750.22
2022-12-23T00:08:39.030Z,97742.25
2022-12-23T00:11:15.417Z,97745.94
2022-12-23T00:13:42.013Z,97749.84
2022-12-23T00:16:13.732Z,97759.44
2022-12-23T00:18:41.317Z,97762.06
2022-12-23T00:21:14.148Z,97758.41
2022-12-23T00:23:43.464Z,97755.09
2022-12-23T00:26:18.035Z,97754.28
2022-12-23T00:28:44.741Z,97760.44
2022-12-23T00:31:13.315Z,97752.19
2022-12-23T00:33:43.230Z,97758.53
2022-12-23T00:36:21.153Z,97768.75
2022-12-23T00:38:48.156Z,97771.19
2022-12-23T00:41:17.104Z,97770.78
2022-12-23T00:43:43.477Z,97776.09
2022-12-23T00:46:09.967Z,97779.78
2022-12-23T00:48:36.605Z,97778.31
2022-12-23T00:51:03.320Z,97781.59
2022-12-23T00:53:30.152Z,97782.19
2022-12-23T00:55:56.613Z,97793.22
2022-12-23T00:58:23.110Z,97787.25
2022-12-23T01:00:49.465Z,97794.44
2022-12-23T01:03:16.172Z,97803.47
2022-12-23T01:05:42.625Z,97799.53
2022-12-23T01:08:10.904Z,97808.16
2022-12-23T01:10:39.868Z,97808.56
2022-12-23T01:13:07.253Z,97804.25
2022-12-23T01:15:34.096Z,97803.03
2022-12-23T01:18:00.489Z,97817.56
2022-12-23T01:20:26.919Z,97811.00
2022-12-23T01:22:53.300Z,97809.53
2022-12-23T01:25:19.674Z,97818.13
2022-12-23T01:27:46.423Z,97819.53
2022-12-23T01:30:13.088Z,97822.78
2022-12-23T01:32:39.471Z,97823.03
2022-12-23T01:35:05.955Z,97825.69
2022-12-23T01:37:32.349Z,97835.91
2022-12-23T01:39:58.842Z,97838.75
2022-12-23T01:42:25.290Z,97843.66
2022-12-23T01:44:59.169Z,97840.78
2022-12-23T01:48:01.055Z,97844.50
2022-12-23T01:50:32.977Z,97855.56
2022-12-23T01:53:13.410Z,97847.31
2022-12-23T01:55:42.511Z,97856.00
2022-12-23T01:58:20.797Z,97848.44
2022-12-23T02:00:47.513Z,97848.63
2022-12-23T02:03:13.934Z,97844.78
2022-12-23T02:05:41.827Z,97848.66
2022-12-23T02:08:08.526Z,97837.97
2022-12-23T02:11:09.080Z,97845.34
2022-12-23T02:13:51.339Z,97843.03
2022-12-23T02:16:17.955Z,97856.34
2022-12-23T02:18:59.392Z,97856.38
2022-12-23T02:21:40.240Z,97862.31
2022-12-23T02:24:12.963Z,97863.97
2022-12-23T02:27:04.839Z,97864.50
2022-12-23T02:30:05.595Z,97869.81
2022-12-23T02:33:10.703Z,97873.09
2022-12-23T02:35:55.108Z,97873.50
2022-12-23T02:38:27.723Z,97878.38
2022-12-23T02:41:15.623Z,97870.00
2022-12-23T02:43:52.067Z,97868.34
2022-12-23T02:46:30.611Z,97878.56
2022-12-23T02:49:04.760Z,97873.06
2022-12-23T02:51:35.808Z,97872.44
2022-12-23T02:54:06.142Z,97870.81
2022-12-23T02:56:36.003Z,97871.47
2022-12-23T02:59:16.599Z,97875.78
2022-12-23T03:01:45.050Z,97875.44
2022-12-23T03:04:11.443Z,97881.81
2022-12-23T03:06:44.409Z,97874.66
2022-12-23T03:09:20.979Z,97879.13
2022-12-23T03:12:05.717Z,97877.03
2022-12-23T03:14:41.052Z,97879.75
2022-12-23T03:17:30.590Z,97881.59
2022-12-23T03:20:25.205Z,97887.34
2022-12-23T03:23:15.586Z,97893.69
2022-12-23T03:25:53.927Z,97900.28
2022-12-23T03:28:32.362Z,97898.47
2022-12-23T03:31:00.672Z,97899.91
2022-12-23T03:33:31.673Z,97900.13
2022-12-23T03:36:04.990Z,97903.59
2022-12-23T03:38:35.504Z,97904.41
2022-12-23T03:41:07.825Z,97905.66
2022-12-23T03:43:43.418Z,97906.09
2022-12-23T03:46:23.336Z,97918.78
2022-12-23T03:48:54.166Z,97916.31
2022-12-23T03:51:29.420Z,97932.09
2022-12-23T03:54:03.627Z,97938.19
2022-12-23T03:56:41.149Z,97945.81
2022-12-23T03:59:18.361Z,97938.06
2022-12-23T04:02:03.467Z,97950.75
2022-12-23T04:04:52.644Z,97951.78
2022-12-23T04:07:25.251Z,97946.66
2022-12-23T04:09:53.290Z,97957.69
2022-12-23T04:12:22.742Z,97963.25
2022-12-23T04:14:50.757Z,97952.78
2022-12-23T04:17:17.863Z,97956.50
2022-12-23T04:19:45.476Z,97956.06
2022-12-23T04:22:15.990Z,97959.34
2022-12-23T04:24:43.514Z,97951.56
2022-12-23T04:27:13.259Z,97957.69
2022-12-23T04:29:39.766Z,97956.88
2022-12-23T04:32:07.809Z,97952.78
2022-12-23T04:34:34.255Z,97958.53
2022-12-23T04:37:00.875Z,97960.19
2022-12-23T04:39:27.190Z,97972.47
2022-12-23T04:41:53.543Z,97965.50
2022-12-23T04:44:20.077Z,97960.59
2022-12-23T04:46:46.505Z,97958.97
2022-12-23T04:49:13.067Z,97965.31
2022-12-23T04:51:39.583Z,97977.19
2022-12-23T04:54:06.255Z,97978.81
2022-12-23T04:56:32.812Z,97980.28
2022-12-23T04:58:59.244Z,97984.56
2022-12-23T05:01:25.784Z,97979.22
2022-12-23T05:03:52.521Z,97987.44
2022-12-23T05:06:18.955Z,97986.63
2022-12-23T05:08:45.288Z,97994.19
2022-12-23T05:11:11.628Z,98002.78
2022-12-23T05:13:38.039Z,98001.16
2022-12-23T05:16:07.254Z,98003.63
2022-12-23T05:18:33.683Z,97989.06
2022-12-23T05:21:00.153Z,97984.78
2022-12-23T05:23:26.548Z,97994.22
2022-12-23T05:25:54.105Z,97998.31
2022-12-23T05:28:22.127Z,98001.97
2022-12-23T05:30:48.937Z,97990.72
2022-12-23T05:33:15.790Z,97990.31
2022-12-23T05:35:42.178Z,97988.88
2022-12-23T05:38:08.616Z,97991.72
2022-12-23T05:40:34.962Z,97989.06
2022-12-23T05:43:01.881Z,98001.56
2022-12-23T05:45:28.374Z,97988.47
2022-12-23T05:47:56.030Z,97995.00
2022-12-23T05:50:22.405Z,97992.75
2022-12-23T05:52:49.132Z,98004.84
2022-12-23T05:55:15.636Z,97997.88
2022-12-23T05:57:41.999Z,98005.66
2022-12-23T06:00:09.103Z,98012.81
2022-12-23T06:02:35.862Z,98007.72
2022-12-23T06:05:02.574Z,98016.72
2022-12-23T06:07:28.912Z,98010.97
2022-12-23T06:09:55.304Z,98006.91
2022-12-23T06:12:21.744Z,98008.94
2022-12-23T06:14:48.249Z,98009.34
2022-12-23T06:17:14.561Z,98015.47
2022-12-23T06:19:41.000Z,98018.38
2022-12-23T06:22:07.349Z,98010.56
2022-12-23T06:24:33.701Z,98019.19
2022-12-23T06:27:00.314Z,98026.34
2022-12-23T06:29:26.698Z,98027.59
2022-12-23T06:31:53.169Z,98014.88
2022-12-23T06:34:19.747Z,98018.56
2022-12-23T06:36:46.475Z,98031.69
2022-12-23T06:39:12.931Z,98022.88
2022-12-23T06:41:39.597Z,98023.06
2022-12-23T06:44:06.454Z,98029.63
2022-12-23T06:46:33.218Z,98029.03
2022-12-23T06:48:59.870Z,98031.69
2022-12-23T06:51:26.287Z,98029.44
2022-12-23T06:53:53.760Z,98030.25
2022-12-23T06:56:20.481Z,98025.75
2022-12-23T06:58:46.844Z,98031.69
2022-12-23T07:01:13.833Z,98037.03
2022-12-23T07:03:40.240Z,98038.03
2022-12-23T07:06:07.228Z,98033.50
2022-12-23T07:08:33.992Z,98052.38
2022-12-23T07:11:01.775Z,98042.34
2022-12-23T07:13:28.275Z,98040.09
2022-12-23T07:15:54.983Z,98040.09
2022-12-23T07:18:22.388Z,98054.44
2022-12-23T07:20:49.702Z,98055.66
2022-12-23T07:23:16.258Z,98055.84
2022-12-23T07:25:42.740Z,98053.41
2022-12-23T07:28:09.330Z,98062.00
2022-12-23T07:30:36.391Z,98065.69
2022-12-23T07:33:02.877Z,98058.75
2022-12-23T07:35:29.503Z,98054.00
2022-12-23T07:37:56.515Z,98056.66
2022-12-23T07:40:23.790Z,98063.25
2022-12-23T07:42:53.446Z,98069.00
2022-12-23T07:45:19.983Z,98058.94
2022-12-23T07:47:46.514Z,98067.53
2022-12-23T07:50:13.628Z,98068.75
2022-12-23T07:52:40.351Z,98075.75
2022-12-23T07:55:07.035Z,98068.97
2022-12-23T07:57:33.557Z,98062.63
2022-12-23T08:00:00.020Z,98063.84
2022-12-23T08:02:26.603Z,98056.88
2022-12-23T08:04:53.161Z,98062.03
2022-12-23T08:07:19.683Z,98067.75
2022-12-23T08:09:46.000Z,98067.53
2022-12-23T08:12:12.388Z,98062.22
2022-12-23T08:14:38.726Z,98072.25
2022-12-23T08:17:05.398Z,98073.09
2022-12-23T08:19:32.186Z,98072.47
2022-12-23T08:21:58.592Z,98074.31
2022-12-23T08:24:24.908Z,98076.97
2022-12-23T08:26:51.590Z,98076.34
2022-12-23T08:29:18.103Z,98081.47
2022-12-23T08:31:44.513Z,98074.31
2022-12-23T08:34:11.015Z,98082.06
2022-12-23T08:36:38.158Z,98081.06
2022-12-23T08:39:07.749Z,98079.81
2022-12-23T08:41:39.164Z,98080.66
2022-12-23T08:44:06.017Z,98088.66
2022-12-23T08:46:32.598Z,98081.06
2022-12-23T08:49:01.759Z,98069.34
2022-12-23T08:51:28.608Z,98072.84
2022-12-23T08:54:00.567Z,98069.38
2022-12-23T08:56:33.744Z,98060.13
2022-12-23T08:59:00.433Z,98070.19
2022-12-23T09:01:29.754Z,98067.13
2022-12-23T09:03:56.754Z,98068.53
2022-12-23T09:06:29.412Z,98062.19
2022-12-23T09:08:57.417Z,98057.03
2022-12-23T09:11:26.139Z,98061.78
2022-12-23T09:13:54.125Z,98062.16
2022-12-23T09:16:21.525Z,98066.06
2022-12-23T09:18:48.035Z,98069.75
2022-12-23T09:21:16.835Z,98073.03
2022-12-23T09:23:43.449Z,98074.00
2022-12-23T09:26:10.842Z,98075.25
2022-12-23T09:28:37.455Z,98068.28
2022-12-23T09:31:12.177Z,98061.94
2022-12-23T09:33:38.707Z,98060.88
2022-12-23T09:36:06.240Z,98060.25
2022-12-23T09:38:32.980Z,98047.53
2022-12-23T09:41:16.590Z,98055.72
2022-12-23T09:43:48.722Z,98049.72
2022-12-23T09:46:21.781Z,98048.91
2022-12-23T09:49:13.460Z,98034.94
2022-12-23T09:51:40.255Z,98037.75
2022-12-23T09:54:21.293Z,98037.75
2022-12-23T09:57:15.683Z,98039.00
2022-12-23T09:59:56.647Z,98032.41
2022-12-23T10:02:23.130Z,98029.31
2022-12-23T10:05:14.479Z,98023.09
2022-12-23T10:07:49.919Z,98012.63
2022-12-23T10:10:39.277Z,98016.41
2022-12-23T10:13:10.478Z,98020.31
2022-12-23T10:15:45.068Z,98016.78
2022-12-23T10:18:26.187Z,98008.38
2022-12-23T10:21:04.816Z,98009.38
2022-12-23T10:23:41.458Z,98005.03
2022-12-23T10:26:18.941Z,98001.13
2022-12-23T10:28:45.503Z,98002.56
2022-12-23T10:31:39.285Z,98006.06
2022-12-23T10:34:20.119Z,97991.31
2022-12-23T10:36:58.262Z,97981.63
2022-12-23T10:39:35.338Z,97975.25
2022-12-23T10:42:27.807Z,97985.50
2022-12-23T10:45:08.608Z,97980.72
2022-12-23T10:48:24.210Z,97977.38
2022-12-23T10:51:04.552Z,97973.09
2022-12-23T10:53:40.173Z,97974.25
2022-12-23T10:56:08.499Z,97977.91
2022-12-23T10:58:42.189Z,97966.66
2022-12-23T11:01:17.529Z,97966.47
2022-12-23T11:04:07.044Z,97963.13
2022-12-23T11:06:38.655Z,97962.91
2022-12-23T11:09:07.127Z,97957.06
2022-12-23T11:12:01.062Z,97952.94
2022-12-23T11:14:56.406Z,97949.63
2022-12-23T11:17:28.967Z,97942.47
2022-12-23T11:20:10.385Z,97940.56
2022-12-23T11:22:48.159Z,97936.72
2022-12-23T11:25:30.240Z,97931.94
2022-12-23T11:28:23.141Z,97925.59
2022-12-23T11:30:56.819Z,97921.28
2022-12-23T11:33:26.653Z,97918.03
2022-12-23T11:36:13.310Z,97910.59
2022-12-23T11:38:51.781Z,97913.72
2022-12-23T11:41:21.047Z,97900.13
2022-12-23T11:44:26.553Z,97901.69
2022-12-23T11:46:53.495Z,97900.38
2022-12-23T11:49:23.382Z,97895.47
2022-12-23T11:52:12.583Z,97884.28
2022-12-23T11:54:39.215Z,97886.28
2022-12-23T11:57:08.763Z,97880.94
2022-12-23T11:59:40.906Z,97871.38
2022-12-23T12:02:29.214Z,97867.00
2022-12-23T12:05:21.720Z,97870.28
2022-12-23T12:07:51.325Z,97861.22
2022-12-23T12:10:30.382Z,97861.84
2022-12-23T12:13:01.320Z,97848.75
2022-12-23T12:15:33.767Z,97841.47
2022-12-23T12:18:03.129Z,97836.84
2022-12-23T12:20:36.299Z,97829.91
2022-12-23T12:23:08.963Z,97830.09
2022-12-23T12:25:44.725Z,97825.06
2022-12-23T12:28:20.893Z,97828.44
2022-12-23T12:31:05.660Z,97828.66
2022-12-23T12:33:49.201Z,97820.84
2022-12-23T12:36:43.898Z,97822.88
2022-12-23T12:39:19.517Z,97822.66
2022-12-23T12:42:05.558Z,97805.38
2022-12-23T12:44:51.829Z,97815.00
2022-12-23T12:47:52.767Z,97809.47
2022-12-23T12:50:23.168Z,97803.75
2022-12-23T12:52:51.654Z,97803.72
2022-12-23T12:55:34.815Z,97800.84
2022-12-23T12:58:02.011Z,97803.75
2022-12-23T13:00:29.943Z,97802.69
2022-12-23T13:03:31.337Z,97802.78
2022-12-23T13:06:13.302Z,97800.53
2022-12-23T13:08:51.151Z,97791.50
2022-12-23T13:11:41.120Z,97786.59
2022-12-23T13:14:51.507Z,97778.38
2022-12-23T13:17:29.877Z,97782.28
2022-12-23T13:20:17.740Z,97780.22
2022-12-23T13:22:50.375Z,97782.06
2022-12-23T13:25:20.855Z,97775.69
2022-12-23T13:27:57.411Z,97782.06
2022-12-23T13:30:29.629Z,97767.31
2022-12-23T13:33:15.202Z,97770.88
2022-12-23T13:36:05.380Z,97770.44
2022-12-23T13:38:56.559Z,97765.53
2022-12-23T13:41:29.350Z,97768.22
2022-12-23T13:44:01.041Z,97767.38
2022-12-23T13:46:40.180Z,97763.16
2022-12-23T13:49:21.451Z,97766.47
2022-12-23T13:52:00.160Z,97763.44
2022-12-23T13:54:51.319Z,97763.44
2022-12-23T13:57:29.941Z,97771.31
2022-12-23T14:00:20.550Z,97761.91
2022-12-23T14:02:59.217Z,97769.47
2022-12-23T14:05:33.423Z,97768.78
2022-12-23T14:08:02.348Z,97769.81
2022-12-23T14:10:29.458Z,97766.34
2022-12-23T14:13:05.809Z,97764.50
2022-12-23T14:15:49.416Z,97761.81
2022-12-23T14:18:34.224Z,97758.53
2022-12-23T14:21:19.905Z,97762.47
2022-12-23T14:24:04.668Z,97759.00
2022-12-23T14:27:09.233Z,97766.41
2022-12-23T14:30:06.450Z,97768.03
2022-12-23T14:32:51.371Z,97764.84
2022-12-23T14:35:42.829Z,97762.34
2022-12-23T14:38:22.590Z,97760.41
2022-12-23T14:40:57.800Z,97757.56
2022-12-23T14:43:31.883Z,97758.00
2022-12-23T14:46:04.135Z,97758.34
2022-12-23T14:48:33.469Z,97760.41
2022-12-23T14:51:04.057Z,97757.66
2022-12-23T14:53:32.580Z,97749.06
2022-12-23T14:56:08.183Z,97753.22
2022-12-23T14:58:49.271Z,97749.06
2022-12-23T15:01:17.301Z,97748.03
2022-12-23T15:03:54.515Z,97755.25
2022-12-23T15:06:36.108Z,97756.50
2022-12-23T15:09:03.743Z,97758.13
2022-12-23T15:11:32.890Z,97753.97
2022-12-23T15:14:03.740Z,97759.75
2022-12-23T15:16:37.727Z,97771.91
2022-12-23T15:19:23.275Z,97764.34
2022-12-23T15:21:59.676Z,97752.41
2022-12-23T15:24:32.036Z,97768.88
2022-12-23T15:27:25.061Z,97780.22
2022-12-23T15:29:50.704Z,97786.16
2022-12-23T15:32:19.423Z,97778.81
2022-12-23T15:34:48.882Z,97795.66
2022-12-23T15:37:29.175Z,97806.69
2022-12-23T15:40:03.421Z,97800.97
2022-12-23T15:42:34.233Z,97812.91
2022-12-23T15:45:01.202Z,97816.88
2022-12-23T15:47:37.212Z,97818.47
2022-12-23T15:50:11.891Z,97823.81
2022-12-23T15:52:40.972Z,97819.97
2022-12-23T15:55:21.440Z,97812.72
2022-12-23T15:57:50.792Z,97813.88
2022-12-23T16:00:31.176Z,97815.72
2022-12-23T16:03:01.222Z,97809.94
2022-12-23T16:05:37.607Z,97814.03
2022-12-23T16:08:26.496Z,97815.13
2022-12-23T16:11:18.307Z,97816.53
2022-12-23T16:13:59.520Z,97814.00
2022-12-23T16:16:33.424Z,97797.47
2022-12-23T16:19:00.516Z,97813.09
2022-12-23T16:21:33.643Z,97804.97
2022-12-23T16:24:01.527Z,97808.94
2022-12-23T16:26:27.964Z,97793.25
2022-12-23T16:28:59.437Z,97800.53
2022-12-23T16:31:26.500Z,97792.81
2022-12-23T16:33:58.262Z,97799.50
2022-12-23T16:36:27.822Z,97810.19
2022-12-23T16:39:11.400Z,97806.03
2022-12-23T16:41:37.926Z,97808.69
2022-12-23T16:44:04.488Z,97817.97
2022-12-23T16:46:38.658Z,97814.78
2022-12-23T16:49:07.132Z,97816.41
2022-12-23T16:51:34.447Z,97813.25
2022-12-23T16:54:01.799Z,97826.59
2022-12-23T16:56:34.295Z,97826.81
2022-12-23T16:59:00.984Z,97826.97
2022-12-23T17:01:31.601Z,97828.47
2022-12-23T17:03:58.462Z,97828.38
2022-12-23T17:06:25.703Z,97826.78
2022-12-23T17:08:52.358Z,97822.56
2022-12-23T17:11:41.730Z,97823.69
2022-12-23T17:14:15.821Z,97826.81
2022-12-23T17:16:42.690Z,97825.78
2022-12-23T17:19:09.358Z,97828.09
2022-12-23T17:21:37.279Z,97832.31
2022-12-23T17:24:09.553Z,97835.06
2022-12-23T17:26:36.091Z,97836.34
2022-12-23T17:29:04.360Z,97824.22
2022-12-23T17:31:32.659Z,97826.69
2022-12-23T17:33:59.142Z,97830.53
2022-12-23T17:36:25.898Z,97817.63
2022-12-23T17:38:52.328Z,97816.50
2022-12-23T17:41:30.545Z,97810.78
2022-12-23T17:43:57.889Z,97821.00
2022-12-23T17:46:25.860Z,97828.75
2022-12-23T17:48:53.028Z,97828.75
2022-12-23T17:51:22.525Z,97824.91
2022-12-23T17:53:56.919Z,97830.25
2022-12-23T17:56:26.439Z,97830.34
2022-12-23T17:58:52.983Z,97829.09
2022-12-23T18:01:23.557Z,97815.03
2022-12-23T18:03:50.151Z,97809.69
2022-12-23T18:06:19.011Z,97810.78
2022-12-23T18:08:46.209Z,97821.47
2022-12-23T18:11:21.744Z,97819.25
2022-12-23T18:13:50.310Z,97838.19
2022-12-23T18:16:17.012Z,97828.47
2022-12-23T18:18:46.540Z,97823.31
2022-12-23T18:21:27.080Z,97831.44
2022-12-23T18:23:55.097Z,97852.38
2022-12-23T18:26:21.514Z,97868.94
2022-12-23T18:28:48.632Z,97865.34
2022-12-23T18:31:18.246Z,97880.66
2022-12-23T18:33:45.299Z,97878.34
2022-12-23T18:36:30.477Z,97887.91
2022-12-23T18:38:57.197Z,97887.19
2022-12-23T18:41:24.880Z,97900.59
2022-12-23T18:43:52.080Z,97919.38
2022-12-23T18:46:18.741Z,97930.31
2022-12-23T18:48:45.346Z,97932.81
2022-12-23T18:51:17.235Z,97947.84
2022-12-23T18:53:43.912Z,97951.94
2022-12-23T18:56:14.959Z,97952.97
2022-12-23T18:58:41.608Z,97954.13
2022-12-23T19:01:12.816Z,97954.56
2022-12-23T19:03:39.773Z,97942.66
2022-12-23T19:06:07.924Z,97944.16
2022-12-23T19:08:36.409Z,97937.47
2022-12-23T19:11:10.005Z,97929.88
2022-12-23T19:13:36.459Z,97956.09
2022-12-23T19:16:03.024Z,97946.94
2022-12-23T19:18:29.523Z,97913.53
2022-12-23T19:20:55.868Z,97913.97
2022-12-23T19:23:22.415Z,97921.38
2022-12-23T19:25:54.845Z,97923.91
2022-12-23T19:28:22.657Z,97914.94
2022-12-23T19:30:49.712Z,97917.88
2022-12-23T19:33:16.581Z,97919.13
2022-12-23T19:35:44.087Z,97914.22
2022-12-23T19:38:11.523Z,97911.78
2022-12-23T19:40:38.279Z,97919.97
2022-12-23T19:43:04.802Z,97933.16
2022-12-23T19:45:31.205Z,97928.84
2022-12-23T19:47:57.556Z,97922.91
2022-12-23T19:50:23.999Z,97925.59
2022-12-23T19:52:50.832Z,97909.78
2022-12-23T19:55:17.313Z,97925.03
2022-12-23T19:57:43.919Z,97928.97
2022-12-23T20:00:11.513Z,97939.19
2022-12-23T20:02:37.907Z,97946.19
2022-12-23T20:05:04.906Z,97950.50
2022-12-23T20:07:31.679Z,97937.53
2022-12-23T20:09:58.455Z,97939.94
2022-12-23T20:12:24.849Z,97936.66
2022-12-23T20:14:51.195Z,97948.81
2022-12-23T20:17:17.522Z,97956.22
2022-12-23T20:19:46.127Z,97964.22
2022-12-23T20:22:13.041Z,97969.31
2022-12-23T20:24:39.457Z,97963.59
2022-12-23T20:27:10.916Z,97966.50
2022-12-23T20:29:38.346Z,97984.38
2022-12-23T20:32:05.091Z,97973.47
2022-12-23T20:34:38.381Z,97979.84
2022-12-23T20:37:06.104Z,97981.34
2022-12-23T20:39:32.723Z,97996.13
2022-12-23T20:41:59.142Z,98006.38
2022-12-23T20:44:34.929Z,98025.69
2022-12-23T20:47:03.373Z,98039.41
2022-12-23T20:49:30.897Z,98054.38
2022-12-23T20:51:57.440Z,98067.16
2022-12-23T20:54:29.723Z,98062.25
2022-12-23T20:56:59.026Z,98072.53
2022-12-23T20:59:25.419Z,98080.50
2022-12-23T21:01:52.142Z,98070.25
2022-12-23T21:04:18.712Z,98085.03
2022-12-23T21:06:45.176Z,98079.47
2022-12-23T21:09:13.715Z,98081.50
2022-12-23T21:11:43.477Z,98088.34
2022-12-23T21:14:10.718Z,98095.56
2022-12-23T21:16:38.589Z,98097.22
2022-12-23T21:19:06.839Z,98101.34
2022-12-23T21:21:34.040Z,98096.44
2022-12-23T21:24:02.223Z,98092.72
2022-12-23T21:26:30.922Z,98097.88
2022-12-23T21:28:59.001Z,98094.59
2022-12-23T21:31:27.072Z,98095.63
2022-12-23T21:33:54.256Z,98096.47
2022-12-23T21:36:24.051Z,98093.22
2022-12-23T21:38:51.237Z,98103.31
2022-12-23T21:41:24.310Z,98095.34
2022-12-23T21:43:51.543Z,98093.66
2022-12-23T21:46:20.860Z,98086.72
2022-12-23T21:48:48.114Z,98100.66
2022-12-23T21:51:21.029Z,98116.06
2022-12-23T21:53:50.066Z,98121.00
2022-12-23T21:56:22.295Z,98119.19
2022-12-23T21:58:48.866Z,98128.81
2022-12-23T22:01:17.968Z,98138.44
2022-12-23T22:03:45.779Z,98138.06
2022-12-23T22:06:24.255Z,98134.16
2022-12-23T22:08:52.638Z,98123.69
2022-12-23T22:11:22.227Z,98136.41
2022-12-23T22:13:48.997Z,98141.13
2022-12-23T22:16:18.559Z,98137.66
2022-12-23T22:18:45.861Z,98123.91
2022-12-23T22:21:15.085Z,98136.81
2022-12-23T22:23:42.059Z,98138.25
2022-12-23T22:26:12.198Z,98132.28
2022-12-23T22:28:39.502Z,98133.72
2022-12-23T22:31:13.392Z,98141.31
2022-12-23T22:33:39.915Z,98147.06
2022-12-23T22:36:06.834Z,98148.69
2022-12-23T22:38:33.373Z,98145.03
2022-12-23T22:40:59.793Z,98136.00
2022-12-23T22:43:26.275Z,98137.00
2022-12-23T22:46:00.740Z,98144.78
2022-12-23T22:48:28.915Z,98148.69
2022-12-23T22:51:07.743Z,98159.97
2022-12-23T22:53:34.430Z,98165.06
2022-12-23T22:56:02.351Z,98159.13
2022-12-23T22:58:30.902Z,98163.03
2022-12-23T23:00:57.417Z,98166.28
2022-12-23T23:03:24.105Z,98175.31
2022-12-23T23:05:57.211Z,98168.56
2022-12-23T23:08:24.311Z,98164.03
2022-12-23T23:10:51.479Z,98171.63
2022-12-23T23:13:17.983Z,98171.66
2022-12-23T23:15:47.388Z,98171.44
2022-12-23T23:18:13.982Z,98182.72
2022-12-23T23:20:40.608Z,98180.47
2022-12-23T23:23:07.085Z,98176.56
2022-12-23T23:25:33.669Z,98198.91
2022-12-23T23:28:00.379Z,98194.19
2022-12-23T23:30:26.840Z,98192.16
2022-12-23T23:32:53.217Z,98197.28
2022-12-23T23:35:19.612Z,98192.16
2022-12-23T23:37:45.982Z,98190.31
2022-12-23T23:40:12.592Z,98206.66
2022-12-23T23:42:38.949Z,98202.75
2022-12-23T23:45:05.932Z,98191.47
2022-12-23T23:47:32.399Z,98204.75
2022-12-23T23:49:58.814Z,98209.41
2022-12-23T23:52:25.317Z,98211.41
2022-12-23T23:54:51.656Z,98200.94
2022-12-23T23:57:18.019Z,98212.81
2022-12-23T23:59:44.527Z,98208.50
